createdAt,value
2018-06-15T00:01:10.933Z,3.90
2018-06-15T00:03:39.207Z,4.17
2018-06-15T00:06:07.484Z,4.27
2018-06-15T00:08:35.746Z,3.50
2018-06-15T00:11:04.116Z,3.73
2018-06-15T00:13:32.393Z,4.17
2018-06-15T00:16:00.698Z,4.23
2018-06-15T00:18:28.971Z,3.97
2018-06-15T00:20:57.245Z,4.43
2018-06-15T00:23:25.529Z,3.63
2018-06-15T00:25:53.555Z,3.73
2018-06-15T00:28:21.845Z,4.23
2018-06-15T00:30:50.157Z,3.77
2018-06-15T00:33:18.525Z,4.03
2018-06-15T00:35:46.827Z,4.00
2018-06-15T00:38:15.117Z,3.80
2018-06-15T00:40:43.133Z,3.73
2018-06-15T00:43:11.409Z,4.23
2018-06-15T00:45:39.687Z,3.83
2018-06-15T00:48:07.976Z,4.23
2018-06-15T00:50:36.244Z,4.40
2018-06-15T00:53:04.521Z,4.17
2018-06-15T00:55:32.813Z,3.80
2018-06-15T00:58:01.116Z,4.17
2018-06-15T01:00:29.391Z,4.10
2018-06-15T01:02:57.677Z,4.40
2018-06-15T01:05:25.976Z,3.73
2018-06-15T01:07:54.237Z,4.00
2018-06-15T01:10:22.505Z,4.10
2018-06-15T01:12:50.787Z,4.23
2018-06-15T01:15:19.071Z,3.70
2018-06-15T01:17:47.361Z,3.80
2018-06-15T01:20:15.632Z,3.57
2018-06-15T01:22:43.914Z,3.87
2018-06-15T01:25:12.203Z,4.10
2018-06-15T01:27:40.467Z,3.60
2018-06-15T01:30:08.531Z,3.63
2018-06-15T01:32:36.795Z,4.10
2018-06-15T01:35:05.076Z,4.13
2018-06-15T01:37:33.557Z,3.60
2018-06-15T01:40:01.858Z,3.80
2018-06-15T01:42:30.138Z,4.10
2018-06-15T01:44:58.395Z,3.50
2018-06-15T01:47:26.678Z,4.20
2018-06-15T01:49:54.940Z,4.20
2018-06-15T01:52:23.212Z,3.87
2018-06-15T01:54:51.532Z,3.83
2018-06-15T01:57:19.818Z,4.13
2018-06-15T01:59:48.098Z,3.97
2018-06-15T02:02:16.482Z,4.17
2018-06-15T02:04:44.768Z,4.23
2018-06-15T02:07:13.046Z,3.70
2018-06-15T02:09:41.356Z,3.80
2018-06-15T02:12:09.549Z,3.50
2018-06-15T02:14:37.830Z,4.13
2018-06-15T02:17:06.103Z,3.37
2018-06-15T02:19:34.406Z,3.63
2018-06-15T02:22:02.683Z,3.77
2018-06-15T02:24:30.973Z,3.90
2018-06-15T02:26:59.227Z,4.10
2018-06-15T02:29:27.494Z,3.87
2018-06-15T02:31:55.760Z,3.90
2018-06-15T02:34:24.064Z,4.20
2018-06-15T02:36:52.372Z,3.90
2018-06-15T02:39:20.639Z,3.80
2018-06-15T02:41:48.944Z,3.90
2018-06-15T02:44:17.331Z,3.90
2018-06-15T02:46:45.646Z,4.13
2018-06-15T02:49:13.919Z,3.90
2018-06-15T02:51:42.208Z,4.30
2018-06-15T02:54:10.479Z,3.90
2018-06-15T02:56:38.758Z,4.27
2018-06-15T02:59:07.059Z,4.03
2018-06-15T03:01:35.337Z,3.77
2018-06-15T03:04:03.602Z,4.10
2018-06-15T03:06:31.870Z,3.70
2018-06-15T03:09:00.144Z,3.70
2018-06-15T03:11:28.427Z,4.00
2018-06-15T03:13:56.724Z,4.60
2018-06-15T03:16:25.009Z,6.03
2018-06-15T03:18:53.273Z,4.33
2018-06-15T03:21:21.548Z,4.50
2018-06-15T03:23:49.810Z,6.80
2018-06-15T03:26:18.100Z,3.93
2018-06-15T03:28:46.406Z,6.63
2018-06-15T03:31:14.697Z,4.73
2018-06-15T03:33:42.954Z,4.93
2018-06-15T03:36:10.946Z,4.27
2018-06-15T03:38:39.222Z,4.87
2018-06-15T03:41:07.492Z,6.13
2018-06-15T03:43:35.768Z,6.40
2018-06-15T03:46:04.273Z,6.23
2018-06-15T03:48:32.548Z,4.40
2018-06-15T03:51:00.843Z,4.07
2018-06-15T03:53:29.103Z,3.97
2018-06-15T03:55:57.400Z,3.87
2018-06-15T03:58:25.386Z,4.30
2018-06-15T04:00:53.671Z,5.57
2018-06-15T04:03:21.960Z,8.73
2018-06-15T04:05:50.208Z,8.53
2018-06-15T04:08:18.988Z,13.27
2018-06-15T04:10:47.271Z,8.70
2018-06-15T04:13:15.627Z,6.47
2018-06-15T04:15:44.017Z,4.87
2018-06-15T04:18:12.289Z,6.97
2018-06-15T04:20:40.600Z,6.03
2018-06-15T04:23:09.181Z,5.57
2018-06-15T04:25:37.470Z,13.70
2018-06-15T04:28:05.781Z,6.43
2018-06-15T04:30:33.797Z,5.23
2018-06-15T04:33:02.065Z,6.40
2018-06-15T04:35:30.329Z,6.80
2018-06-15T04:37:58.721Z,6.77
2018-06-15T04:40:26.999Z,7.97
2018-06-15T04:42:55.287Z,6.23
2018-06-15T04:45:23.573Z,7.43
2018-06-15T04:47:51.857Z,6.70
2018-06-15T04:50:20.127Z,5.50
2018-06-15T04:52:48.427Z,6.33
2018-06-15T04:55:17.037Z,9.47
2018-06-15T04:57:45.553Z,4.43
2018-06-15T05:00:13.919Z,9.87
2018-06-15T05:02:42.206Z,17.70
2018-06-15T05:05:10.573Z,11.27
2018-06-15T05:07:38.862Z,15.60
2018-06-15T05:10:07.237Z,12.93
2018-06-15T05:12:35.268Z,11.67
2018-06-15T05:15:03.578Z,9.60
2018-06-15T05:17:31.873Z,18.33
2018-06-15T05:20:00.285Z,9.70
2018-06-15T05:22:28.687Z,12.27
2018-06-15T05:24:56.959Z,13.73
2018-06-15T05:27:25.223Z,11.93
2018-06-15T05:29:53.521Z,19.43
2018-06-15T05:32:21.869Z,10.30
2018-06-15T05:34:50.276Z,8.80
2018-06-15T05:37:18.543Z,15.50
2018-06-15T05:39:46.835Z,12.47
2018-06-15T05:42:15.271Z,8.93
2018-06-15T05:44:43.543Z,9.77
2018-06-15T05:47:11.823Z,13.73
2018-06-15T05:49:40.095Z,9.03
2018-06-15T05:52:08.433Z,9.27
2018-06-15T05:54:36.729Z,14.53
2018-06-15T05:57:05.182Z,8.17
2018-06-15T05:59:33.475Z,11.87
2018-06-15T06:02:01.760Z,5.43
2018-06-15T06:04:30.035Z,13.40
2018-06-15T06:06:58.343Z,10.77
2018-06-15T06:09:26.635Z,13.07
2018-06-15T06:11:54.910Z,7.00
2018-06-15T06:14:23.189Z,9.37
2018-06-15T06:16:51.477Z,7.43
2018-06-15T06:19:19.841Z,7.03
2018-06-15T06:21:48.208Z,9.53
2018-06-15T06:24:16.493Z,10.20
2018-06-15T06:26:44.758Z,6.87
2018-06-15T06:29:13.041Z,8.27
2018-06-15T06:31:41.137Z,7.00
2018-06-15T06:34:09.403Z,8.17
2018-06-15T06:36:37.695Z,7.80
2018-06-15T06:39:08.487Z,15.47
2018-06-15T06:41:36.781Z,281.77
2018-06-15T06:44:05.105Z,377.40
2018-06-15T06:46:33.392Z,331.77
2018-06-15T06:49:01.688Z,354.10
2018-06-15T06:51:29.964Z,282.20
2018-06-15T06:53:58.240Z,246.90
2018-06-15T06:56:26.886Z,197.73
2018-06-15T06:58:55.176Z,226.87
2018-06-15T07:01:23.472Z,213.70
2018-06-15T07:03:51.476Z,208.33
2018-06-15T07:06:19.794Z,212.40
2018-06-15T07:08:48.062Z,203.73
2018-06-15T07:11:16.336Z,203.67
2018-06-15T07:13:44.627Z,207.90
2018-06-15T07:16:13.094Z,178.17
2018-06-15T07:18:41.397Z,175.33
2018-06-15T07:21:09.769Z,188.57
2018-06-15T07:23:38.087Z,176.13
2018-06-15T07:26:06.363Z,174.90
2018-06-15T07:28:34.654Z,181.70
2018-06-15T07:31:02.938Z,170.10
2018-06-15T07:33:31.254Z,171.27
2018-06-15T07:35:59.537Z,142.67
2018-06-15T07:38:27.822Z,145.57
2018-06-15T07:40:56.124Z,142.47
2018-06-15T07:43:24.414Z,124.23
2018-06-15T07:45:52.856Z,119.30
2018-06-15T07:48:21.132Z,122.20
2018-06-15T07:50:49.172Z,111.83
2018-06-15T07:53:17.464Z,113.70
2018-06-15T07:55:45.754Z,107.47
2018-06-15T07:58:14.046Z,96.83
2018-06-15T08:00:42.340Z,107.97
2018-06-15T08:03:10.411Z,86.10
2018-06-15T08:05:38.698Z,98.87
2018-06-15T08:08:06.985Z,82.90
2018-06-15T08:10:35.286Z,77.20
2018-06-15T08:13:03.588Z,84.57
2018-06-15T08:15:31.868Z,80.03
2018-06-15T08:18:00.252Z,78.80
2018-06-15T08:20:28.526Z,84.07
2018-06-15T08:22:56.829Z,68.77
2018-06-15T08:25:25.224Z,72.43
2018-06-15T08:27:53.508Z,62.83
2018-06-15T08:30:21.780Z,69.03
2018-06-15T08:32:50.060Z,60.13
2018-06-15T08:35:18.376Z,64.67
2018-06-15T08:37:46.665Z,57.70
2018-06-15T08:40:14.958Z,61.93
2018-06-15T08:42:43.397Z,53.13
2018-06-15T08:45:11.738Z,55.23
2018-06-15T08:47:39.835Z,54.67
2018-06-15T08:50:08.115Z,51.30
2018-06-15T08:52:36.428Z,55.77
2018-06-15T08:55:04.992Z,50.77
2018-06-15T08:57:33.328Z,53.97
2018-06-15T09:00:01.597Z,50.80
2018-06-15T09:02:29.885Z,50.13
2018-06-15T09:04:58.160Z,50.90
2018-06-15T09:07:26.464Z,42.97
2018-06-15T09:09:54.820Z,47.80
2018-06-15T09:12:23.128Z,44.37
2018-06-15T09:14:51.417Z,46.27
2018-06-15T09:17:19.718Z,43.33
2018-06-15T09:19:48.006Z,45.00
2018-06-15T09:22:16.292Z,42.37
2018-06-15T09:24:44.600Z,40.63
2018-06-15T09:27:12.898Z,37.67
2018-06-15T09:29:41.170Z,36.57
2018-06-15T09:32:09.466Z,33.27
2018-06-15T09:34:37.756Z,35.17
2018-06-15T09:37:06.086Z,38.20
2018-06-15T09:39:34.350Z,35.37
2018-06-15T09:42:02.632Z,32.60
2018-06-15T09:44:30.700Z,33.37
2018-06-15T09:46:58.784Z,31.17
2018-06-15T09:49:26.820Z,39.07
2018-06-15T09:51:55.104Z,29.37
2018-06-15T09:54:23.402Z,32.50
2018-06-15T09:56:51.693Z,30.87
2018-06-15T09:59:19.976Z,27.73
2018-06-15T10:01:48.344Z,27.73
2018-06-15T10:04:16.622Z,29.40
2018-06-15T10:06:44.925Z,26.37
2018-06-15T10:09:13.333Z,25.23
2018-06-15T10:11:41.632Z,30.53
2018-06-15T10:14:10.038Z,21.93
2018-06-15T10:16:38.421Z,26.47
2018-06-15T10:19:06.663Z,19.33
2018-06-15T10:21:35.043Z,23.60
2018-06-15T10:24:03.333Z,22.80
2018-06-15T10:26:31.643Z,18.77
2018-06-15T10:28:59.961Z,23.17
2018-06-15T10:31:28.237Z,19.20
2018-06-15T10:33:56.541Z,17.30
2018-06-15T10:36:24.831Z,19.93
2018-06-15T10:38:53.143Z,19.60
2018-06-15T10:41:21.431Z,21.67
2018-06-15T10:43:49.704Z,20.80
2018-06-15T10:46:18.019Z,19.20
2018-06-15T10:48:46.304Z,14.67
2018-06-15T10:51:14.611Z,16.90
2018-06-15T10:53:42.909Z,16.47
2018-06-15T10:56:11.296Z,21.67
2018-06-15T10:58:39.559Z,13.17
2018-06-15T11:01:07.867Z,15.40
2018-06-15T11:03:36.153Z,15.20
2018-06-15T11:06:04.506Z,15.40
2018-06-15T11:08:32.810Z,14.97
2018-06-15T11:11:01.148Z,14.60
2018-06-15T11:13:29.439Z,16.60
2018-06-15T11:15:57.739Z,10.70
2018-06-15T11:18:26.023Z,12.57
2018-06-15T11:20:54.319Z,12.77
2018-06-15T11:23:22.597Z,16.93
2018-06-15T11:25:50.873Z,12.27
2018-06-15T11:28:19.161Z,10.43
2018-06-15T11:30:47.435Z,13.87
2018-06-15T11:33:15.726Z,13.47
2018-06-15T11:35:44.049Z,17.53
2018-06-15T11:38:12.437Z,26.93
2018-06-15T11:40:40.861Z,20.37
2018-06-15T11:43:09.139Z,22.33
2018-06-15T11:45:37.471Z,35.23
2018-06-15T11:48:05.757Z,15.30
2018-06-15T11:50:34.065Z,15.17
2018-06-15T11:53:02.352Z,15.63
2018-06-15T11:55:30.675Z,16.53
2018-06-15T11:57:58.981Z,15.73
2018-06-15T12:00:27.301Z,16.10
2018-06-15T12:02:55.603Z,14.57
2018-06-15T12:05:23.903Z,12.70
2018-06-15T12:07:52.249Z,14.80
2018-06-15T12:10:20.504Z,18.53
2018-06-15T12:12:48.873Z,13.03
2018-06-15T12:15:16.946Z,11.80
2018-06-15T12:17:45.270Z,15.30
2018-06-15T12:20:13.574Z,13.57
2018-06-15T12:22:41.925Z,20.87
2018-06-15T12:25:10.217Z,13.53
2018-06-15T12:27:38.490Z,14.73
2018-06-15T12:30:06.809Z,11.50
2018-06-15T12:32:35.093Z,16.93
2018-06-15T12:35:03.435Z,11.83
2018-06-15T12:37:31.734Z,12.30
2018-06-15T12:40:00.022Z,9.73
2018-06-15T12:42:28.366Z,14.37
2018-06-15T12:44:56.451Z,13.20
2018-06-15T12:47:24.751Z,44.67
2018-06-15T12:49:53.043Z,16.13
2018-06-15T12:52:21.327Z,16.40
2018-06-15T12:54:49.635Z,16.00
2018-06-15T12:57:17.934Z,26.03
2018-06-15T12:59:46.236Z,28.90
2018-06-15T13:02:14.525Z,27.73
2018-06-15T13:04:42.825Z,24.60
2018-06-15T13:07:11.216Z,17.00
2018-06-15T13:09:39.491Z,21.53
2018-06-15T13:12:07.789Z,16.77
2018-06-15T13:14:36.076Z,24.63
2018-06-15T13:17:04.357Z,15.93
2018-06-15T13:19:32.838Z,25.33
2018-06-15T13:22:01.106Z,16.70
2018-06-15T13:24:33.038Z,18.17
2018-06-15T13:27:01.496Z,12.53
2018-06-15T13:29:29.828Z,14.10
2018-06-15T13:31:58.121Z,21.33
2018-06-15T13:34:26.416Z,16.83
2018-06-15T13:36:54.716Z,13.27
2018-06-15T13:39:23.020Z,11.60
2018-06-15T13:41:51.319Z,22.83
2018-06-15T13:44:19.588Z,11.90
2018-06-15T13:46:47.854Z,13.43
2018-06-15T13:49:16.198Z,10.90
2018-06-15T13:51:44.531Z,9.33
2018-06-15T13:54:12.877Z,10.40
2018-06-15T13:56:41.181Z,18.83
2018-06-15T13:59:09.561Z,10.23
2018-06-15T14:01:37.860Z,11.67
2018-06-15T14:04:06.188Z,14.67
2018-06-15T14:06:34.455Z,12.03
2018-06-15T14:09:02.685Z,9.73
2018-06-15T14:11:30.965Z,16.00
2018-06-15T14:13:59.258Z,8.43
2018-06-15T14:16:27.554Z,8.90
2018-06-15T14:18:56.028Z,9.00
2018-06-15T14:21:24.306Z,10.47
2018-06-15T14:23:52.615Z,8.90
2018-06-15T14:26:20.917Z,10.60
2018-06-15T14:28:48.923Z,9.00
2018-06-15T14:31:17.210Z,9.97
2018-06-15T14:33:45.548Z,8.73
2018-06-15T14:36:13.829Z,9.97
2018-06-15T14:38:42.114Z,8.40
2018-06-15T14:41:10.383Z,11.43
2018-06-15T14:43:38.669Z,8.73
2018-06-15T14:46:06.944Z,8.93
2018-06-15T14:48:35.214Z,8.37
2018-06-15T14:51:03.557Z,8.10
2018-06-15T14:53:31.844Z,8.37
2018-06-15T14:56:00.141Z,8.40
2018-06-15T14:58:28.705Z,9.77
2018-06-15T15:00:57.000Z,8.03
2018-06-15T15:03:25.316Z,8.40
2018-06-15T15:05:53.589Z,8.27
2018-06-15T15:08:21.610Z,8.30
2018-06-15T15:10:50.022Z,8.33
2018-06-15T15:13:18.326Z,8.10
2018-06-15T15:15:46.652Z,9.03
2018-06-15T15:18:14.939Z,11.27
2018-06-15T15:20:43.124Z,8.43
2018-06-15T15:23:11.441Z,10.30
2018-06-15T15:25:39.722Z,15.60
2018-06-15T15:28:08.016Z,12.23
2018-06-15T15:30:36.676Z,7.90
2018-06-15T15:33:04.960Z,9.20
2018-06-15T15:35:33.320Z,11.97
2018-06-15T15:38:01.630Z,14.33
2018-06-15T15:40:29.908Z,9.00
2018-06-15T15:42:58.192Z,10.20
2018-06-15T15:45:26.486Z,8.63
2018-06-15T15:47:54.764Z,8.77
2018-06-15T15:50:23.111Z,11.23
2018-06-15T15:52:51.444Z,10.07
2018-06-15T15:55:19.732Z,8.77
2018-06-15T15:57:48.032Z,14.97
2018-06-15T16:00:16.368Z,8.87
2018-06-15T16:02:44.676Z,10.10
2018-06-15T16:05:12.993Z,19.50
2018-06-15T16:07:41.288Z,11.87
2018-06-15T16:10:09.563Z,12.13
2018-06-15T16:12:37.832Z,10.03
2018-06-15T16:15:06.132Z,8.27
2018-06-15T16:17:34.522Z,12.77
2018-06-15T16:20:02.798Z,10.63
2018-06-15T16:22:31.084Z,8.20
2018-06-15T16:24:59.392Z,7.83
2018-06-15T16:27:27.737Z,10.20
2018-06-15T16:29:56.104Z,7.60
2018-06-15T16:32:24.409Z,8.80
2018-06-15T16:34:52.766Z,9.47
2018-06-15T16:37:21.097Z,8.33
2018-06-15T16:39:49.361Z,8.53
2018-06-15T16:42:17.698Z,20.40
2018-06-15T16:44:45.991Z,10.57
2018-06-15T16:47:14.272Z,9.67
2018-06-15T16:49:42.698Z,13.03
2018-06-15T16:52:11.010Z,8.53
2018-06-15T16:54:39.412Z,7.63
2018-06-15T16:57:07.758Z,8.83
2018-06-15T16:59:36.046Z,9.63
2018-06-15T17:02:04.241Z,8.00
2018-06-15T17:04:32.548Z,8.63
2018-06-15T17:07:00.868Z,9.77
2018-06-15T17:09:29.252Z,15.73
2018-06-15T17:11:57.535Z,8.47
2018-06-15T17:14:25.836Z,9.73
2018-06-15T17:16:54.124Z,8.57
2018-06-15T17:19:22.202Z,8.03
2018-06-15T17:21:50.472Z,11.53
2018-06-15T17:24:18.760Z,23.47
2018-06-15T17:26:46.789Z,50.43
2018-06-15T17:29:15.113Z,111.93
2018-06-15T17:31:43.409Z,172.83
2018-06-15T17:34:11.536Z,231.90
2018-06-15T17:36:45.508Z,219.53
2018-06-15T17:39:14.390Z,212.70
2018-06-15T17:41:43.908Z,200.20
2018-06-15T17:44:12.218Z,190.57
2018-06-15T17:46:40.585Z,183.13
2018-06-15T17:49:09.341Z,206.90
2018-06-15T17:51:37.617Z,174.77
2018-06-15T17:54:05.955Z,184.70
2018-06-15T17:56:34.262Z,171.83
2018-06-15T17:59:02.545Z,168.90
2018-06-15T18:01:30.978Z,145.73
2018-06-15T18:03:59.318Z,148.53
2018-06-15T18:06:27.672Z,135.27
2018-06-15T18:08:56.279Z,141.23
2018-06-15T18:11:24.558Z,122.03
2018-06-15T18:13:53.064Z,101.63
2018-06-15T18:16:21.372Z,117.53
2018-06-15T18:18:49.750Z,127.13
2018-06-15T18:21:18.073Z,105.27
2018-06-15T18:23:46.385Z,114.07
2018-06-15T18:26:15.099Z,109.70
2018-06-15T18:28:43.435Z,106.70
2018-06-15T18:31:11.995Z,96.67
2018-06-15T18:33:40.321Z,104.97
2018-06-15T18:36:08.655Z,93.57
2018-06-15T18:38:36.958Z,96.07
2018-06-15T18:41:04.992Z,97.47
2018-06-15T18:43:33.297Z,92.50
2018-06-15T18:46:01.578Z,90.20
2018-06-15T18:48:29.981Z,71.30
2018-06-15T18:50:58.292Z,88.80
2018-06-15T18:53:26.605Z,79.53
2018-06-15T18:55:54.964Z,75.23
2018-06-15T18:58:23.361Z,59.80
2018-06-15T19:00:51.401Z,69.30
2018-06-15T19:03:19.731Z,82.10
2018-06-15T19:05:48.038Z,71.50
2018-06-15T19:08:16.400Z,66.40
2018-06-15T19:10:44.722Z,60.37
2018-06-15T19:13:13.021Z,66.50
2018-06-15T19:15:41.356Z,71.23
2018-06-15T19:18:09.635Z,70.77
2018-06-15T19:20:37.660Z,71.00
2018-06-15T19:23:06.185Z,69.33
2018-06-15T19:25:34.481Z,64.80
2018-06-15T19:28:02.804Z,56.60
2018-06-15T19:30:31.808Z,51.70
2018-06-15T19:32:59.837Z,49.17
2018-06-15T19:35:28.154Z,53.47
2018-06-15T19:37:56.559Z,48.43
2018-06-15T19:40:24.869Z,44.93
2018-06-15T19:42:53.179Z,47.67
2018-06-15T19:45:21.477Z,50.00
2018-06-15T19:47:49.878Z,45.33
2018-06-15T19:50:18.177Z,51.57
2018-06-15T19:52:46.603Z,45.00
2018-06-15T19:55:14.905Z,43.77
2018-06-15T19:57:43.195Z,45.90
2018-06-15T20:00:11.511Z,44.13
2018-06-15T20:02:39.828Z,45.10
2018-06-15T20:05:08.399Z,43.20
2018-06-15T20:07:36.725Z,44.10
2018-06-15T20:10:05.043Z,37.00
2018-06-15T20:12:33.341Z,43.00
2018-06-15T20:15:01.759Z,36.80
2018-06-15T20:17:29.829Z,39.07
2018-06-15T20:19:57.971Z,36.03
2018-06-15T20:22:26.325Z,36.07
2018-06-15T20:24:54.781Z,36.30
2018-06-15T20:27:23.067Z,43.77
2018-06-15T20:29:51.396Z,39.93
2018-06-15T20:32:19.445Z,36.47
2018-06-15T20:34:47.757Z,35.13
2018-06-15T20:37:16.091Z,38.27
2018-06-15T20:39:44.414Z,33.30
2018-06-15T20:42:12.727Z,39.13
2018-06-15T20:44:41.012Z,37.97
2018-06-15T20:47:09.372Z,31.73
2018-06-15T20:49:37.399Z,34.80
2018-06-15T20:52:05.865Z,34.60
2018-06-15T20:54:34.183Z,29.73
2018-06-15T20:57:02.583Z,29.43
2018-06-15T20:59:30.881Z,34.20
2018-06-15T21:01:58.975Z,32.30
2018-06-15T21:04:27.285Z,36.33
2018-06-15T21:06:55.581Z,27.93
2018-06-15T21:09:23.607Z,26.77
2018-06-15T21:11:51.925Z,30.37
2018-06-15T21:14:20.345Z,34.00
2018-06-15T21:16:48.658Z,30.63
2018-06-15T21:19:17.229Z,27.93
2018-06-15T21:21:45.577Z,27.83
2018-06-15T21:24:13.857Z,27.17
2018-06-15T21:26:42.157Z,36.03
2018-06-15T21:29:10.453Z,26.67
2018-06-15T21:31:38.735Z,25.43
2018-06-15T21:34:07.221Z,29.57
2018-06-15T21:36:35.541Z,23.07
2018-06-15T21:39:05.527Z,24.87
2018-06-15T21:41:33.908Z,22.30
2018-06-15T21:44:02.275Z,21.70
2018-06-15T21:46:30.297Z,24.83
2018-06-15T21:48:58.363Z,20.70
2018-06-15T21:51:26.651Z,26.30
2018-06-15T21:53:54.931Z,19.47
2018-06-15T21:56:23.225Z,22.53
2018-06-15T21:58:51.641Z,24.43
2018-06-15T22:01:21.086Z,23.50
2018-06-15T22:03:49.420Z,21.07
2018-06-15T22:06:17.705Z,21.53
2018-06-15T22:08:46.003Z,18.77
2018-06-15T22:11:14.270Z,22.37
2018-06-15T22:13:42.558Z,20.17
2018-06-15T22:16:11.021Z,23.90
2018-06-15T22:18:39.335Z,17.77
2018-06-15T22:21:07.730Z,17.80
2018-06-15T22:23:36.059Z,19.90
2018-06-15T22:26:04.375Z,20.17
2018-06-15T22:28:32.703Z,17.43
2018-06-15T22:31:01.015Z,17.93
2018-06-15T22:33:29.037Z,21.67
2018-06-15T22:35:57.309Z,17.23
2018-06-15T22:38:25.579Z,16.23
2018-06-15T22:40:53.908Z,15.03
2018-06-15T22:43:22.312Z,16.17
2018-06-15T22:45:50.999Z,16.67
2018-06-15T22:48:19.387Z,18.47
2018-06-15T22:50:47.659Z,14.47
2018-06-15T22:53:15.971Z,13.83
2018-06-15T22:55:44.244Z,16.07
2018-06-15T22:58:12.268Z,16.77
2018-06-15T23:00:40.306Z,15.87
2018-06-15T23:03:08.605Z,14.37
2018-06-15T23:05:36.920Z,15.63
2018-06-15T23:08:05.053Z,15.47
2018-06-15T23:10:33.348Z,16.13
2018-06-15T23:13:01.656Z,13.30
2018-06-15T23:15:30.011Z,17.23
2018-06-15T23:17:58.303Z,12.87
2018-06-15T23:20:26.601Z,12.77
2018-06-15T23:22:54.872Z,15.00
2018-06-15T23:25:23.157Z,12.53
2018-06-15T23:27:51.630Z,13.77
2018-06-15T23:30:19.924Z,12.40
2018-06-15T23:32:48.229Z,11.80
2018-06-15T23:35:16.525Z,13.97
2018-06-15T23:37:44.843Z,12.07
2018-06-15T23:40:12.976Z,12.73
2018-06-15T23:42:41.326Z,13.63
2018-06-15T23:45:09.623Z,11.50
2018-06-15T23:47:38.010Z,12.87
2018-06-15T23:50:06.550Z,11.73
2018-06-15T23:52:34.854Z,12.37
2018-06-15T23:55:03.160Z,11.83
2018-06-15T23:57:31.438Z,11.20
2018-06-15T23:59:59.706Z,11.13
